Time;durP1;ratioP1;P1;durP2;ratioP2;P2;SDS_P1;SDS_P2;PMS_P1;PMS_P2;Temp;Humidity;BMP_temperature;BMP_pressure;BME280_temperature;BME280_humidity;BME280_pressure;Samples;Min_cycle;Max_cycle;Signal;HPM_P1;HPM_P2
2024/01/23 00:00:14;;;;;;;18.20;3.03;;;6.90;99.90;;;;;;4980779;28;20027;-63
2024/01/23 00:02:40;;;;;;;10.93;2.47;;;6.90;99.90;;;;;;4988548;28;20482;-62
2024/01/23 00:05:06;;;;;;;18.77;2.92;;;6.90;99.90;;;;;;4979991;28;20025;-62
2024/01/23 00:07:31;;;;;;;16.45;3.70;;;6.90;99.90;;;;;;4981153;28;20050;-62
2024/01/23 00:09:57;;;;;;;25.08;3.42;;;6.80;99.90;;;;;;4985501;28;20029;-62
2024/01/23 00:12:43;;;;;;;19.70;3.33;;;6.60;99.90;;;;;;5118815;27;19916;-63
2024/01/23 00:15:09;;;;;;;18.27;3.83;;;6.10;99.90;;;;;;5108408;28;20387;-63
2024/01/23 00:17:34;;;;;;;16.88;4.00;;;6.00;99.90;;;;;;5106388;28;20028;-63
2024/01/23 00:20:00;;;;;;;25.35;4.45;;;6.00;99.90;;;;;;5107406;28;20039;-63
2024/01/23 00:22:25;;;;;;;22.40;3.28;;;6.10;99.90;;;;;;5106626;28;20098;-63
2024/01/23 00:24:51;;;;;;;20.75;3.95;;;5.70;99.90;;;;;;5107552;28;20055;-63
2024/01/23 00:27:17;;;;;;;13.68;3.55;;;5.50;99.90;;;;;;5106473;28;20082;-63
2024/01/23 00:29:42;;;;;;;20.85;4.30;;;5.50;99.90;;;;;;5106997;28;20028;-64
2024/01/23 00:32:08;;;;;;;24.52;5.65;;;5.40;99.90;;;;;;5107347;28;20119;-63
2024/01/23 00:34:33;;;;;;;23.63;4.97;;;5.40;99.90;;;;;;5104516;28;20027;-63
2024/01/23 00:37:01;;;;;;;18.45;3.97;;;5.50;99.90;;;;;;5106312;28;20020;-64
2024/01/23 00:39:26;;;;;;;20.92;3.17;;;5.70;99.90;;;;;;5106831;28;20020;-64
2024/01/23 00:41:52;;;;;;;20.33;3.65;;;5.70;99.90;;;;;;5105789;28;20069;-64
2024/01/23 00:44:17;;;;;;;20.80;4.65;;;5.70;99.90;;;;;;5106237;28;20027;-63
2024/01/23 00:46:43;;;;;;;17.77;3.05;;;5.80;99.90;;;;;;5104746;28;20687;-64
2024/01/23 00:49:08;;;;;;;15.65;3.33;;;5.90;99.90;;;;;;5092024;28;20032;-64
2024/01/23 00:51:34;;;;;;;16.42;3.10;;;5.90;99.90;;;;;;5076436;28;20055;-64
2024/01/23 00:54:00;;;;;;;15.85;3.80;;;5.90;99.90;;;;;;5071129;28;20410;-63
2024/01/23 00:56:26;;;;;;;11.00;2.63;;;5.80;99.90;;;;;;5078091;28;20020;-64
2024/01/23 00:58:52;;;;;;;20.52;4.03;;;5.90;99.90;;;;;;5074524;28;20012;-64
2024/01/23 01:01:17;;;;;;;19.13;4.28;;;5.90;99.90;;;;;;5078465;28;20025;-64
2024/01/23 01:03:43;;;;;;;17.67;3.58;;;5.90;99.90;;;;;;5075490;28;20103;-64
2024/01/23 01:06:08;;;;;;;18.52;3.85;;;6.00;99.90;;;;;;5074013;28;20332;-63
2024/01/23 01:08:34;;;;;;;18.50;3.10;;;5.90;99.90;;;;;;5074769;28;20048;-63
2024/01/23 01:11:00;;;;;;;12.43;2.30;;;5.90;99.90;;;;;;5080057;28;20048;-63
2024/01/23 01:13:26;;;;;;;21.13;3.50;;;6.00;99.90;;;;;;5073201;28;20031;-63
2024/01/23 01:15:51;;;;;;;11.30;2.75;;;6.00;99.90;;;;;;5077882;28;20442;-63
2024/01/23 01:18:17;;;;;;;15.15;3.83;;;6.10;99.90;;;;;;5077539;28;20100;-64
2024/01/23 01:20:43;;;;;;;16.73;3.72;;;6.00;99.90;;;;;;5076494;28;20028;-63
2024/01/23 01:23:09;;;;;;;15.00;3.15;;;6.00;99.90;;;;;;5065553;28;20494;-63
2024/01/23 01:25:35;;;;;;;20.27;2.72;;;6.00;99.90;;;;;;5062509;28;20025;-63
2024/01/23 01:28:01;;;;;;;14.18;2.97;;;6.10;99.90;;;;;;5062759;28;20028;-64
2024/01/23 01:30:28;;;;;;;17.02;3.83;;;6.20;99.90;;;;;;5060092;28;20471;-63
2024/01/23 01:32:55;;;;;;;22.30;4.15;;;6.30;99.90;;;;;;5059246;28;20396;-63
2024/01/23 01:35:20;;;;;;;21.00;3.80;;;6.40;99.90;;;;;;5057094;28;20029;-63
2024/01/23 01:37:46;;;;;;;13.90;3.20;;;6.40;99.90;;;;;;5064609;28;20021;-63
2024/01/23 01:40:13;;;;;;;17.05;3.65;;;6.50;99.90;;;;;;5062479;28;20019;-63
2024/01/23 01:42:41;;;;;;;19.88;4.20;;;6.50;99.90;;;;;;5063644;28;20032;-63
2024/01/23 01:45:08;;;;;;;13.90;2.38;;;6.40;99.90;;;;;;5059533;28;20032;-63
2024/01/23 01:47:34;;;;;;;14.65;3.53;;;6.40;99.90;;;;;;5059017;28;20025;-64
2024/01/23 01:50:00;;;;;;;15.30;4.15;;;6.40;99.90;;;;;;5067152;28;20651;-65
2024/01/23 01:52:26;;;;;;;8.30;2.08;;;6.40;99.90;;;;;;5060041;28;20059;-65
2024/01/23 01:54:52;;;;;;;16.90;3.00;;;6.30;99.90;;;;;;5063610;28;20021;-65
2024/01/23 01:57:21;;;;;;;15.30;3.53;;;6.30;99.90;;;;;;5063420;28;20021;-65
2024/01/23 01:59:47;;;;;;;14.52;3.38;;;6.40;99.90;;;;;;5060341;28;20017;-64
2024/01/23 02:02:14;;;;;;;18.42;3.72;;;6.30;99.90;;;;;;5059482;28;20076;-64
2024/01/23 02:04:40;;;;;;;13.43;3.22;;;5.80;99.90;;;;;;5059042;28;20499;-64
2024/01/23 02:07:06;;;;;;;11.95;2.92;;;5.40;99.90;;;;;;5059720;28;20033;-65
2024/01/23 02:09:32;;;;;;;17.92;2.97;;;5.30;99.90;;;;;;5063529;28;20505;-65
2024/01/23 02:11:59;;;;;;;9.82;2.38;;;5.30;99.90;;;;;;5065658;28;20037;-65
2024/01/23 02:14:25;;;;;;;11.85;2.00;;;5.30;99.90;;;;;;5059978;28;20032;-65
2024/01/23 02:16:51;;;;;;;14.95;3.67;;;5.40;99.90;;;;;;5062823;28;20025;-65
2024/01/23 02:19:17;;;;;;;16.70;2.50;;;5.40;99.90;;;;;;5057736;28;20021;-64
2024/01/23 02:21:42;;;;;;;18.25;3.50;;;5.50;99.90;;;;;;5063460;28;20024;-64
2024/01/23 02:24:08;;;;;;;10.93;2.88;;;5.60;99.90;;;;;;5060820;28;20024;-65
2024/01/23 02:26:33;;;;;;;16.23;3.63;;;5.70;99.90;;;;;;5062040;28;20039;-65
2024/01/23 02:28:59;;;;;;;11.55;1.90;;;5.80;99.90;;;;;;5061595;28;20112;-64
2024/01/23 02:31:24;;;;;;;10.90;3.10;;;5.90;99.90;;;;;;5058249;28;20060;-65
2024/01/23 02:33:50;;;;;;;20.20;3.90;;;5.90;99.90;;;;;;5060463;28;20032;-65
2024/01/23 02:36:16;;;;;;;16.73;2.20;;;5.90;99.90;;;;;;5058064;28;20021;-65
2024/01/23 02:38:41;;;;;;;15.63;3.72;;;6.00;99.90;;;;;;5062151;28;20023;-65
2024/01/23 02:41:07;;;;;;;17.73;3.80;;;6.00;99.90;;;;;;5062424;28;20033;-65
2024/01/23 02:43:33;;;;;;;19.13;3.50;;;6.00;99.90;;;;;;5063132;28;20504;-65
2024/01/23 02:45:58;;;;;;;11.73;1.92;;;6.00;99.90;;;;;;5060793;28;20028;-64
2024/01/23 02:48:24;;;;;;;14.70;3.08;;;6.00;99.90;;;;;;5058629;28;20365;-65
2024/01/23 02:50:49;;;;;;;11.75;2.55;;;6.10;99.90;;;;;;5059705;28;20033;-64
2024/01/23 02:53:15;;;;;;;14.30;3.20;;;6.00;99.90;;;;;;5062232;28;20033;-64
2024/01/23 02:55:41;;;;;;;28.15;4.75;;;5.80;99.90;;;;;;5057784;28;20397;-65
2024/01/23 02:58:08;;;;;;;18.02;4.22;;;5.60;99.90;;;;;;5065125;28;20063;-63
2024/01/23 03:00:35;;;;;;;14.65;3.13;;;5.60;99.90;;;;;;5061856;28;20041;-63
2024/01/23 03:03:03;;;;;;;14.38;2.70;;;5.60;99.90;;;;;;5057949;28;20396;-63
2024/01/23 03:05:28;;;;;;;11.60;3.35;;;5.60;99.90;;;;;;5054181;28;20107;-63
2024/01/23 03:07:54;;;;;;;11.55;3.15;;;5.50;99.90;;;;;;5060083;28;20109;-63
2024/01/23 03:10:20;;;;;;;12.13;3.10;;;5.50;99.90;;;;;;5061676;28;20021;-63
2024/01/23 03:12:46;;;;;;;10.10;2.17;;;5.40;99.90;;;;;;5063544;28;20048;-63
2024/01/23 03:15:12;;;;;;;14.30;2.80;;;5.30;99.90;;;;;;5061850;28;20024;-63
2024/01/23 03:17:37;;;;;;;17.52;2.35;;;5.40;99.90;;;;;;5058589;28;20028;-63
2024/01/23 03:20:04;;;;;;;11.55;2.22;;;5.40;99.90;;;;;;5060567;28;20027;-63
2024/01/23 03:22:30;;;;;;;9.85;2.50;;;5.50;99.90;;;;;;5059395;28;20108;-62
2024/01/23 03:24:56;;;;;;;15.52;3.47;;;5.70;99.90;;;;;;5062039;28;20100;-63
2024/01/23 03:27:21;;;;;;;13.55;2.28;;;5.70;99.90;;;;;;5057647;28;20021;-63
2024/01/23 03:29:51;;;;;;;18.65;3.65;;;5.70;99.90;;;;;;5059371;28;20373;-63
2024/01/23 03:32:17;;;;;;;18.13;3.80;;;5.70;99.90;;;;;;5059763;28;20024;-63
2024/01/23 03:34:42;;;;;;;12.60;3.35;;;5.80;99.90;;;;;;5056409;28;20611;-63
2024/01/23 03:37:08;;;;;;;10.63;2.58;;;5.80;99.90;;;;;;5061838;28;20476;-63
2024/01/23 03:39:34;;;;;;;17.58;2.92;;;5.80;99.90;;;;;;5058133;28;20082;-63
2024/01/23 03:42:01;;;;;;;16.75;2.33;;;5.80;99.90;;;;;;5064685;28;20028;-63
2024/01/23 03:44:26;;;;;;;10.80;2.47;;;5.80;99.90;;;;;;5059060;28;20043;-63
2024/01/23 03:46:53;;;;;;;15.13;2.67;;;5.80;99.90;;;;;;5059306;28;20392;-63
2024/01/23 03:49:19;;;;;;;19.55;3.78;;;5.90;99.90;;;;;;5060514;28;20025;-63
2024/01/23 03:51:45;;;;;;;14.13;3.13;;;5.90;99.90;;;;;;5060535;28;20034;-64
2024/01/23 03:54:11;;;;;;;12.05;2.50;;;6.00;99.90;;;;;;5059685;28;20100;-63
2024/01/23 03:56:36;;;;;;;11.00;2.55;;;6.10;99.90;;;;;;5056211;28;20032;-63
2024/01/23 03:59:02;;;;;;;17.23;2.72;;;6.10;99.90;;;;;;5064063;28;20029;-63
2024/01/23 04:01:28;;;;;;;9.40;2.58;;;6.00;99.90;;;;;;5058718;28;20035;-63
2024/01/23 04:03:54;;;;;;;16.65;2.88;;;6.10;99.90;;;;;;5055943;28;20032;-63
2024/01/23 04:06:20;;;;;;;14.20;2.60;;;6.10;99.90;;;;;;5057735;28;20496;-63
2024/01/23 04:08:45;;;;;;;15.20;3.72;;;6.20;99.90;;;;;;5060628;28;20029;-63
2024/01/23 04:11:11;;;;;;;14.43;2.65;;;6.10;99.90;;;;;;5060541;28;20489;-64
2024/01/23 04:13:37;;;;;;;21.00;2.67;;;6.20;99.90;;;;;;5058570;28;20029;-63
2024/01/23 04:16:05;;;;;;;17.02;3.53;;;6.20;99.90;;;;;;5057326;28;20021;-63
2024/01/23 04:18:31;;;;;;;15.57;3.75;;;6.20;99.90;;;;;;5059507;28;20178;-63
2024/01/23 04:20:56;;;;;;;8.15;2.13;;;6.20;99.90;;;;;;5056295;28;20119;-63
2024/01/23 04:23:22;;;;;;;13.85;2.50;;;6.20;99.90;;;;;;5058081;28;20551;-64
2024/01/23 04:25:47;;;;;;;14.10;2.80;;;6.20;99.90;;;;;;5060247;28;20024;-63
2024/01/23 04:28:13;;;;;;;13.50;3.35;;;6.20;99.90;;;;;;5059271;28;20025;-63
2024/01/23 04:30:39;;;;;;;12.48;2.47;;;6.20;99.90;;;;;;5055990;28;20147;-64
2024/01/23 04:33:04;;;;;;;15.73;2.78;;;6.10;99.90;;;;;;5058734;28;20032;-63
2024/01/23 04:35:30;;;;;;;24.00;3.40;;;6.20;99.90;;;;;;5057030;28;20419;-63
2024/01/23 04:37:55;;;;;;;5.28;1.70;;;6.20;99.90;;;;;;5056266;28;20017;-63
2024/01/23 04:40:21;;;;;;;12.73;2.75;;;6.20;99.90;;;;;;5057811;28;20031;-63
2024/01/23 04:42:47;;;;;;;11.38;2.10;;;6.20;99.90;;;;;;5056572;28;20029;-63
2024/01/23 04:45:13;;;;;;;12.98;3.00;;;6.20;99.90;;;;;;5055730;28;20021;-63
2024/01/23 04:47:38;;;;;;;9.40;2.17;;;6.20;99.90;;;;;;5059271;28;20020;-63
2024/01/23 04:50:05;;;;;;;9.43;2.20;;;6.20;99.90;;;;;;5056412;28;20032;-63
2024/01/23 04:52:30;;;;;;;14.68;2.55;;;6.20;99.90;;;;;;5058645;28;20020;-63
2024/01/23 04:54:56;;;;;;;12.70;2.33;;;6.20;99.90;;;;;;5055134;28;20025;-63
2024/01/23 04:57:21;;;;;;;10.70;2.35;;;6.20;99.90;;;;;;5059752;28;20521;-63
2024/01/23 04:59:48;;;;;;;16.83;3.03;;;6.10;99.90;;;;;;5058609;28;20030;-63
2024/01/23 05:02:14;;;;;;;11.07;3.55;;;6.10;99.90;;;;;;5060299;28;20021;-63
2024/01/23 05:04:40;;;;;;;13.45;2.30;;;6.20;99.90;;;;;;5057776;28;20074;-63
2024/01/23 05:07:05;;;;;;;14.18;2.67;;;6.10;99.90;;;;;;5066720;28;20466;-63
2024/01/23 05:09:31;;;;;;;15.60;2.70;;;6.00;99.90;;;;;;5064787;28;20036;-63
2024/01/23 05:11:58;;;;;;;11.63;2.45;;;6.00;99.90;;;;;;5064132;28;20492;-63
2024/01/23 05:14:23;;;;;;;11.25;2.30;;;5.90;99.90;;;;;;5060448;28;20480;-64
2024/01/23 05:16:49;;;;;;;15.10;2.58;;;5.80;99.90;;;;;;5059841;28;20024;-64
2024/01/23 05:19:14;;;;;;;15.85;4.10;;;5.70;99.90;;;;;;5060988;28;20017;-63
2024/01/23 05:21:40;;;;;;;15.27;3.20;;;5.70;99.90;;;;;;5061656;28;20032;-63
2024/01/23 05:24:06;;;;;;;17.52;3.08;;;5.70;99.90;;;;;;5062684;28;20025;-63
2024/01/23 05:26:31;;;;;;;10.18;2.70;;;5.70;99.90;;;;;;5058777;28;20028;-63
2024/01/23 05:28:57;;;;;;;15.68;2.75;;;5.70;99.90;;;;;;5060058;28;20056;-63
2024/01/23 05:31:23;;;;;;;13.73;3.63;;;5.70;99.90;;;;;;5058521;28;20138;-63
2024/01/23 05:33:48;;;;;;;19.83;3.58;;;5.70;99.90;;;;;;5059929;28;20021;-63
2024/01/23 05:36:14;;;;;;;15.55;3.22;;;5.70;99.90;;;;;;5060976;28;20098;-63
2024/01/23 05:38:39;;;;;;;15.68;2.85;;;5.70;99.90;;;;;;5059393;28;20032;-64
2024/01/23 05:41:05;;;;;;;11.43;2.53;;;5.70;99.90;;;;;;5060838;28;20078;-63
2024/01/23 05:43:31;;;;;;;24.73;4.28;;;5.70;99.90;;;;;;5060174;28;20087;-63
2024/01/23 05:45:56;;;;;;;15.50;3.42;;;5.60;99.90;;;;;;5064881;28;20025;-63
2024/01/23 05:48:22;;;;;;;14.77;2.53;;;5.60;99.90;;;;;;5062212;28;20048;-63
2024/01/23 05:50:48;;;;;;;13.88;2.17;;;5.70;99.90;;;;;;5059575;28;20050;-63
2024/01/23 05:53:13;;;;;;;12.85;2.45;;;5.60;99.90;;;;;;5059795;28;20025;-63
2024/01/23 05:55:39;;;;;;;17.98;3.47;;;5.70;99.90;;;;;;5059395;28;20025;-63
2024/01/23 05:58:05;;;;;;;14.30;3.30;;;5.70;99.90;;;;;;5063669;28;20025;-63
2024/01/23 06:00:31;;;;;;;14.70;3.55;;;5.80;99.90;;;;;;5061847;28;20041;-63
2024/01/23 06:02:57;;;;;;;14.43;2.55;;;5.80;99.90;;;;;;5059376;28;20036;-63
2024/01/23 06:05:22;;;;;;;17.40;2.45;;;5.90;99.90;;;;;;5059222;28;20120;-63
2024/01/23 06:07:51;;;;;;;15.60;2.63;;;5.80;99.90;;;;;;5063035;28;20047;-64
2024/01/23 06:10:17;;;;;;;20.38;3.83;;;5.80;99.90;;;;;;5062867;28;20024;-63
2024/01/23 06:12:43;;;;;;;13.35;2.50;;;5.80;99.90;;;;;;5064069;28;20039;-63
2024/01/23 06:15:09;;;;;;;18.00;4.18;;;5.80;99.90;;;;;;5060512;28;20020;-64
2024/01/23 06:17:35;;;;;;;13.57;3.33;;;5.70;99.90;;;;;;5060985;28;20032;-63
2024/01/23 06:20:04;;;;;;;13.52;2.60;;;5.80;99.90;;;;;;5057581;28;20021;-63
2024/01/23 06:22:30;;;;;;;12.57;2.42;;;5.80;99.90;;;;;;5060036;28;20043;-63
2024/01/23 06:25:02;;;;;;;16.08;2.85;;;5.80;99.90;;;;;;5058268;28;20403;-63
2024/01/23 06:27:28;;;;;;;16.80;3.30;;;5.70;99.90;;;;;;5061817;28;20035;-64
2024/01/23 06:29:53;;;;;;;17.63;2.47;;;5.70;99.90;;;;;;5065112;28;20032;-63
2024/01/23 06:32:19;;;;;;;9.48;2.40;;;5.60;99.90;;;;;;5061297;28;20025;-63
2024/01/23 06:34:45;;;;;;;12.60;2.97;;;5.60;99.90;;;;;;5055836;28;20365;-64
2024/01/23 06:37:10;;;;;;;22.63;4.07;;;5.50;99.90;;;;;;5059138;28;20595;-63
2024/01/23 06:39:36;;;;;;;15.90;3.67;;;5.50;99.90;;;;;;5060389;28;20021;-63
2024/01/23 06:42:01;;;;;;;14.98;2.50;;;5.50;99.90;;;;;;5061876;28;20035;-63
2024/01/23 06:44:27;;;;;;;20.83;2.83;;;5.50;99.90;;;;;;5057790;28;20427;-63
2024/01/23 06:46:53;;;;;;;21.25;4.32;;;5.60;99.90;;;;;;5056495;28;20116;-63
2024/01/23 06:49:18;;;;;;;17.35;3.47;;;5.50;99.90;;;;;;5060575;28;20082;-63
2024/01/23 06:51:45;;;;;;;14.25;3.00;;;5.40;99.90;;;;;;5061057;28;20028;-63
2024/01/23 06:54:10;;;;;;;25.50;5.57;;;5.40;99.90;;;;;;5064403;28;20071;-63
2024/01/23 06:56:36;;;;;;;15.63;2.90;;;5.40;99.90;;;;;;5059060;28;20060;-64
2024/01/23 06:59:03;;;;;;;15.85;2.53;;;5.30;99.90;;;;;;5060270;28;20099;-64
2024/01/23 07:01:28;;;;;;;17.95;2.95;;;5.40;99.90;;;;;;5056933;28;20017;-64
2024/01/23 07:03:54;;;;;;;11.75;2.45;;;5.40;99.90;;;;;;5056698;28;20031;-63
2024/01/23 07:06:19;;;;;;;17.80;2.53;;;5.40;99.90;;;;;;5055877;28;20475;-63
2024/01/23 07:08:45;;;;;;;12.63;2.58;;;5.50;99.90;;;;;;5052429;28;20040;-63
2024/01/23 07:11:12;;;;;;;19.83;2.85;;;5.40;99.90;;;;;;5059737;28;20044;-63
2024/01/23 07:13:38;;;;;;;13.38;2.10;;;5.40;99.90;;;;;;5059773;28;20479;-63
2024/01/23 07:16:04;;;;;;;15.95;2.75;;;5.40;99.90;;;;;;5060281;28;20024;-64
2024/01/23 07:18:30;;;;;;;13.02;2.20;;;5.40;99.90;;;;;;5060522;28;20028;-63
2024/01/23 07:20:55;;;;;;;16.63;2.83;;;5.50;99.90;;;;;;5060106;28;20025;-63
2024/01/23 07:23:21;;;;;;;14.90;2.67;;;5.40;99.90;;;;;;5061045;28;20404;-64
2024/01/23 07:25:46;;;;;;;16.80;3.88;;;5.50;99.90;;;;;;5057380;28;20090;-64
2024/01/23 07:28:12;;;;;;;11.80;2.63;;;5.50;99.90;;;;;;5059714;28;20290;-63
2024/01/23 07:30:38;;;;;;;12.60;2.85;;;5.50;99.90;;;;;;5058420;28;20403;-63
2024/01/23 07:33:03;;;;;;;18.42;3.28;;;5.50;99.90;;;;;;5053392;28;20028;-63
2024/01/23 07:35:29;;;;;;;13.25;2.47;;;5.40;99.90;;;;;;5058469;28;20402;-63
2024/01/23 07:37:54;;;;;;;15.98;2.55;;;5.50;99.90;;;;;;5056253;28;20231;-63
2024/01/23 07:40:20;;;;;;;18.45;3.47;;;5.50;99.90;;;;;;5063082;28;20369;-65
2024/01/23 07:42:46;;;;;;;17.42;3.33;;;5.50;99.90;;;;;;5063797;28;20052;-65
2024/01/23 07:45:12;;;;;;;16.77;3.00;;;5.50;99.90;;;;;;5062250;28;20027;-65
2024/01/23 07:47:37;;;;;;;23.55;3.53;;;5.50;99.90;;;;;;5056821;28;20043;-64
2024/01/23 07:50:03;;;;;;;19.73;4.03;;;5.50;99.90;;;;;;5058123;28;20032;-65
2024/01/23 07:52:31;;;;;;;13.48;2.22;;;5.60;99.90;;;;;;5053535;28;20036;-65
2024/01/23 07:54:57;;;;;;;16.02;2.90;;;5.50;99.90;;;;;;5051889;28;20078;-66
2024/01/23 07:57:22;;;;;;;14.60;1.95;;;5.60;99.90;;;;;;5057997;28;20023;-66
2024/01/23 07:59:48;;;;;;;18.52;3.33;;;5.60;99.90;;;;;;5056163;28;20029;-65
2024/01/23 08:02:14;;;;;;;13.43;2.40;;;5.60;99.90;;;;;;5063537;28;20031;-65
2024/01/23 08:04:39;;;;;;;18.00;2.88;;;5.60;99.90;;;;;;5048941;28;20028;-65
2024/01/23 08:07:05;;;;;;;12.80;2.33;;;5.60;99.90;;;;;;5058503;28;20049;-65
2024/01/23 08:09:31;;;;;;;15.90;3.55;;;5.60;99.90;;;;;;5061763;28;20032;-66
2024/01/23 08:11:56;;;;;;;19.55;4.40;;;5.60;99.90;;;;;;5063214;28;20037;-64
2024/01/23 08:14:22;;;;;;;18.80;3.42;;;5.70;99.90;;;;;;5058851;28;20047;-65
2024/01/23 08:16:48;;;;;;;17.50;3.30;;;5.70;99.90;;;;;;5061267;28;20838;-65
2024/01/23 08:19:13;;;;;;;8.75;1.90;;;5.70;99.90;;;;;;5059626;28;20013;-65
2024/01/23 08:21:39;;;;;;;14.55;2.78;;;5.70;99.90;;;;;;5060718;28;20029;-65
2024/01/23 08:24:05;;;;;;;17.38;3.58;;;5.70;99.90;;;;;;5062128;28;20020;-65
2024/01/23 08:26:30;;;;;;;14.35;3.20;;;5.70;99.90;;;;;;5056517;28;20139;-65
2024/01/23 08:28:58;;;;;;;15.82;3.08;;;5.70;99.90;;;;;;5062993;28;20021;-65
2024/01/23 08:31:24;;;;;;;13.68;3.13;;;5.70;99.90;;;;;;5061346;28;20530;-65
2024/01/23 08:33:49;;;;;;;16.80;3.53;;;5.70;99.90;;;;;;5059853;28;20029;-65
2024/01/23 08:36:16;;;;;;;15.20;2.92;;;5.70;99.90;;;;;;5061328;28;20449;-65
2024/01/23 08:38:43;;;;;;;16.13;2.33;;;5.70;99.90;;;;;;5066304;28;20039;-65
2024/01/23 08:41:09;;;;;;;17.98;2.78;;;5.80;99.90;;;;;;5064673;28;20028;-65
2024/01/23 08:43:35;;;;;;;10.32;2.85;;;5.70;99.90;;;;;;5068322;28;20032;-65
2024/01/23 08:46:01;;;;;;;18.25;3.10;;;5.80;99.90;;;;;;5068423;28;20021;-65
2024/01/23 08:48:28;;;;;;;16.20;2.90;;;5.70;99.90;;;;;;5067093;28;20341;-65
2024/01/23 08:50:53;;;;;;;8.65;2.25;;;5.70;99.90;;;;;;5066317;28;20032;-65
2024/01/23 08:53:19;;;;;;;14.88;3.35;;;5.70;99.90;;;;;;5058678;28;20024;-65
2024/01/23 08:55:46;;;;;;;15.98;3.50;;;5.70;99.90;;;;;;5066098;28;20055;-65
2024/01/23 08:58:14;;;;;;;20.63;3.58;;;5.70;99.90;;;;;;5059351;28;20074;-65
2024/01/23 09:00:40;;;;;;;17.15;3.45;;;5.90;99.90;;;;;;5069077;28;20135;-64
2024/01/23 09:03:06;;;;;;;12.80;2.88;;;6.00;99.90;;;;;;5057909;28;20096;-65
2024/01/23 09:05:31;;;;;;;19.10;4.10;;;6.10;99.90;;;;;;5062578;28;20024;-65
2024/01/23 09:07:57;;;;;;;16.30;3.03;;;6.00;99.90;;;;;;5064459;28;20021;-65
2024/01/23 09:10:23;;;;;;;16.17;3.13;;;6.20;99.90;;;;;;5062240;28;20486;-65
2024/01/23 09:12:48;;;;;;;13.40;2.65;;;6.30;99.90;;;;;;5068974;28;20021;-65
2024/01/23 09:15:14;;;;;;;11.27;2.58;;;6.50;99.90;;;;;;5059820;28;20023;-65
2024/01/23 09:17:40;;;;;;;16.45;3.13;;;6.60;99.90;;;;;;5059730;28;20025;-65
2024/01/23 09:20:06;;;;;;;15.55;2.40;;;6.70;99.90;;;;;;5061864;28;20120;-65
2024/01/23 09:22:31;;;;;;;11.73;2.85;;;6.90;99.90;;;;;;5062401;28;20032;-65
2024/01/23 09:24:59;;;;;;;14.43;2.40;;;7.10;99.90;;;;;;5060588;28;20108;-65
2024/01/23 09:27:25;;;;;;;16.55;4.13;;;7.10;99.90;;;;;;5061066;28;20025;-65
2024/01/23 09:29:51;;;;;;;18.52;3.42;;;7.00;99.90;;;;;;5061907;28;20078;-65
2024/01/23 09:32:16;;;;;;;13.23;2.97;;;6.80;99.90;;;;;;5063219;28;20393;-65
2024/01/23 09:34:42;;;;;;;16.02;2.80;;;6.70;99.90;;;;;;5060230;28;20062;-65
2024/01/23 09:37:08;;;;;;;9.68;1.70;;;6.80;99.90;;;;;;5059606;28;20075;-66
2024/01/23 09:39:33;;;;;;;12.45;3.30;;;7.10;99.90;;;;;;5062162;28;20025;-66
2024/01/23 09:42:01;;;;;;;11.15;2.67;;;7.20;99.90;;;;;;5064197;28;20040;-65
2024/01/23 09:44:27;;;;;;;15.75;2.65;;;7.30;99.90;;;;;;5062780;28;20036;-65
2024/01/23 09:46:54;;;;;;;14.63;2.70;;;7.20;99.90;;;;;;5061371;28;20537;-65
2024/01/23 09:49:20;;;;;;;15.50;2.28;;;7.10;99.90;;;;;;5059472;28;20034;-65
2024/01/23 09:51:47;;;;;;;15.88;2.78;;;7.30;99.90;;;;;;5060043;28;20156;-65
2024/01/23 09:54:14;;;;;;;12.90;3.15;;;7.40;99.90;;;;;;5062793;28;20020;-65
2024/01/23 09:56:40;;;;;;;13.05;2.63;;;7.40;99.90;;;;;;5061572;28;20639;-66
2024/01/23 09:59:07;;;;;;;15.20;2.60;;;7.60;99.90;;;;;;5066730;28;20534;-64
2024/01/23 10:01:33;;;;;;;20.17;3.13;;;7.90;99.90;;;;;;5058432;28;20143;-64
2024/01/23 10:04:02;;;;;;;11.32;2.55;;;8.00;99.90;;;;;;5058994;28;20021;-64
2024/01/23 10:06:28;;;;;;;12.73;2.70;;;8.10;99.90;;;;;;5057022;28;20051;-64
2024/01/23 10:08:53;;;;;;;17.48;3.67;;;8.20;99.90;;;;;;5060685;28;20092;-63
2024/01/23 10:11:19;;;;;;;23.48;3.08;;;8.10;99.90;;;;;;5060474;28;20123;-63
2024/01/23 10:13:47;;;;;;;12.30;2.65;;;7.90;99.90;;;;;;5056159;28;20425;-63
2024/01/23 10:16:16;;;;;;;10.52;2.00;;;8.00;99.90;;;;;;5059182;28;20025;-63
2024/01/23 10:18:46;;;;;;;20.27;3.53;;;8.10;99.90;;;;;;5059337;28;20107;-64
2024/01/23 10:21:11;;;;;;;17.37;2.93;;;8.10;99.90;;;;;;5058759;28;20267;-64
2024/01/23 10:23:38;;;;;;;20.17;3.58;;;8.20;99.90;;;;;;5054052;28;20025;-64
2024/01/23 10:26:07;;;;;;;11.35;2.65;;;8.30;99.90;;;;;;5053578;28;20025;-63
2024/01/23 10:28:33;;;;;;;14.30;2.55;;;8.80;99.90;;;;;;5057818;28;20040;-63
2024/01/23 10:31:01;;;;;;;17.80;3.50;;;9.00;99.90;;;;;;5056504;28;20033;-63
2024/01/23 10:33:26;;;;;;;22.60;4.47;;;8.50;99.90;;;;;;5060094;28;20032;-64
2024/01/23 10:35:54;;;;;;;21.77;3.42;;;8.30;99.90;;;;;;5054718;28;20092;-63
2024/01/23 10:38:20;;;;;;;16.02;2.92;;;7.90;99.90;;;;;;5054679;28;20049;-64
2024/01/23 10:40:47;;;;;;;18.15;3.33;;;8.10;99.90;;;;;;5057023;28;20040;-64
2024/01/23 10:43:13;;;;;;;15.18;2.72;;;8.20;99.90;;;;;;5059383;28;20055;-63
2024/01/23 10:45:39;;;;;;;16.65;3.10;;;8.60;99.90;;;;;;5055644;28;20503;-63
2024/01/23 10:48:07;;;;;;;12.77;3.28;;;8.70;99.90;;;;;;5056051;28;20040;-64
2024/01/23 10:50:34;;;;;;;14.98;3.45;;;8.90;99.90;;;;;;5052910;28;20021;-62
2024/01/23 10:53:05;;;;;;;17.90;3.72;;;8.80;99.90;;;;;;5053841;28;20481;-62
2024/01/23 10:55:32;;;;;;;10.32;2.13;;;8.80;99.90;;;;;;5057163;28;20021;-62
2024/01/23 10:58:04;;;;;;;19.17;3.25;;;9.10;99.90;;;;;;5056841;28;20035;-62
2024/01/23 11:00:33;;;;;;;17.27;3.53;;;9.20;99.90;;;;;;5059345;28;20025;-62
2024/01/23 11:02:59;;;;;;;18.10;3.47;;;9.40;99.90;;;;;;5060417;28;20571;-62
2024/01/23 11:05:35;;;;;;;16.00;3.25;;;9.30;99.90;;;;;;5054608;28;20031;-62
2024/01/23 11:08:15;;;;;;;18.70;3.58;;;9.10;99.90;;;;;;5060550;28;20029;-62
2024/01/23 11:10:54;;;;;;;14.68;3.45;;;9.20;99.90;;;;;;5060064;28;20043;-63
2024/01/23 11:13:32;;;;;;;11.63;2.72;;;9.20;99.90;;;;;;5057840;28;20025;-63
2024/01/23 11:15:57;;;;;;;15.52;2.95;;;9.20;99.90;;;;;;5061711;28;20044;-63
2024/01/23 11:18:28;;;;;;;12.70;2.60;;;8.90;99.90;;;;;;5057136;28;20104;-63
2024/01/23 11:21:09;;;;;;;14.32;2.60;;;8.90;99.90;;;;;;5053671;28;20115;-64
2024/01/23 11:23:36;;;;;;;12.15;2.45;;;8.80;99.90;;;;;;5059757;28;20029;-63
2024/01/23 11:26:14;;;;;;;13.35;3.85;;;8.70;99.90;;;;;;5054439;28;20048;-63
2024/01/23 11:28:45;;;;;;;16.63;2.47;;;8.50;99.90;;;;;;5057628;28;20089;-63
2024/01/23 11:31:23;;;;;;;16.23;3.17;;;8.50;99.90;;;;;;5060355;28;20036;-64
2024/01/23 11:33:51;;;;;;;16.05;3.80;;;8.90;99.90;;;;;;5058136;28;20020;-63
2024/01/23 11:36:25;;;;;;;12.23;2.95;;;8.80;99.90;;;;;;5061221;28;20430;-63
2024/01/23 11:38:53;;;;;;;17.38;3.35;;;8.70;99.90;;;;;;5057249;28;20021;-63
2024/01/23 11:41:22;;;;;;;17.90;2.83;;;8.70;99.90;;;;;;5063541;28;20488;-63
2024/01/23 11:43:52;;;;;;;17.95;3.00;;;8.80;99.90;;;;;;5062304;28;20028;-63
2024/01/23 11:46:25;;;;;;;18.60;3.75;;;8.90;99.90;;;;;;5057946;28;20033;-63
2024/01/23 11:48:52;;;;;;;14.40;2.83;;;9.60;99.90;;;;;;5058415;28;20395;-64
2024/01/23 11:51:18;;;;;;;16.20;3.22;;;10.60;99.90;;;;;;5057262;28;20033;-63
2024/01/23 11:53:45;;;;;;;9.95;2.50;;;10.90;99.90;;;;;;5056882;28;20557;-63
2024/01/23 11:56:12;;;;;;;21.67;3.70;;;10.70;99.90;;;;;;5058318;28;20016;-63
2024/01/23 11:58:40;;;;;;;16.35;3.55;;;10.30;99.90;;;;;;5060234;28;20503;-63
2024/01/23 12:01:07;;;;;;;18.75;3.05;;;10.40;99.90;;;;;;5060154;28;20111;-64
2024/01/23 12:03:34;;;;;;;22.70;3.92;;;10.70;99.90;;;;;;5062797;28;20028;-64
2024/01/23 12:06:03;;;;;;;14.93;3.10;;;11.10;99.90;;;;;;5056979;28;20017;-63
2024/01/23 12:08:29;;;;;;;15.20;3.50;;;11.20;99.90;;;;;;5061483;28;20101;-63
2024/01/23 12:10:57;;;;;;;11.38;3.15;;;10.50;99.90;;;;;;5062765;28;20082;-64
2024/01/23 12:13:24;;;;;;;17.60;3.67;;;10.00;99.90;;;;;;5056959;28;20024;-63
2024/01/23 12:15:50;;;;;;;14.43;2.92;;;9.40;99.90;;;;;;5059071;28;20032;-63
2024/01/23 12:18:21;;;;;;;17.33;3.00;;;9.20;99.90;;;;;;5059151;28;20058;-63
2024/01/23 12:20:48;;;;;;;13.88;3.17;;;9.40;99.90;;;;;;5061889;28;20134;-63
2024/01/23 12:23:15;;;;;;;19.02;3.47;;;9.30;99.90;;;;;;5057377;28;20021;-63
2024/01/23 12:25:41;;;;;;;12.93;1.80;;;9.00;99.90;;;;;;5058546;28;20112;-63
2024/01/23 12:28:07;;;;;;;15.93;3.58;;;8.90;99.90;;;;;;5059500;28;20541;-64
2024/01/23 12:30:33;;;;;;;21.30;2.47;;;9.20;99.90;;;;;;5060690;28;20108;-64
2024/01/23 12:32:59;;;;;;;10.23;1.77;;;9.60;99.90;;;;;;5057157;28;20147;-64
2024/01/23 12:35:25;;;;;;;17.45;2.80;;;10.00;99.90;;;;;;5059626;28;20059;-64
2024/01/23 12:37:51;;;;;;;16.90;2.75;;;10.00;99.90;;;;;;5057956;28;20029;-64
2024/01/23 12:40:17;;;;;;;15.88;2.58;;;10.10;99.90;;;;;;5056337;28;20059;-64
2024/01/23 12:42:44;;;;;;;22.98;2.83;;;10.00;99.90;;;;;;5056685;28;20068;-64